createdAt,value
2023-03-11T00:00:28.531Z,980.38
2023-03-11T00:01:30.250Z,980.32
2023-03-11T00:02:32.031Z,980.37
2023-03-11T00:03:33.784Z,980.37
2023-03-11T00:04:35.466Z,980.39
2023-03-11T00:05:37.267Z,980.43
2023-03-11T00:06:38.941Z,980.52
2023-03-11T00:07:40.754Z,980.54
2023-03-11T00:08:42.405Z,980.52
2023-03-11T00:09:44.134Z,980.58
2023-03-11T00:10:45.858Z,980.63
2023-03-11T00:11:47.591Z,980.56
2023-03-11T00:12:49.342Z,980.59
2023-03-11T00:13:51.079Z,980.68
2023-03-11T00:14:52.884Z,980.71
2023-03-11T00:15:54.534Z,980.62
2023-03-11T00:16:56.289Z,980.62
2023-03-11T00:17:58.029Z,980.61
2023-03-11T00:18:59.742Z,980.66
2023-03-11T00:20:01.517Z,980.69
2023-03-11T00:21:03.202Z,980.64
2023-03-11T00:22:04.986Z,980.66
2023-03-11T00:23:06.670Z,980.61
2023-03-11T00:24:08.445Z,980.71
2023-03-11T00:25:10.135Z,980.65
2023-03-11T00:26:12.037Z,980.7
2023-03-11T00:27:13.647Z,980.75
2023-03-11T00:28:15.326Z,980.77
2023-03-11T00:29:17.075Z,980.71
2023-03-11T00:30:18.805Z,980.72
2023-03-11T00:31:20.658Z,980.8
2023-03-11T00:32:22.299Z,980.81
2023-03-11T00:33:24.024Z,980.81
2023-03-11T00:34:25.790Z,980.81
2023-03-11T00:35:27.535Z,980.83
2023-03-11T00:36:29.249Z,980.83
2023-03-11T00:37:30.946Z,980.84
2023-03-11T00:38:32.706Z,980.89
2023-03-11T00:39:34.456Z,980.85
2023-03-11T00:40:36.147Z,980.72
2023-03-11T00:41:37.871Z,980.88
2023-03-11T00:42:39.629Z,980.81
2023-03-11T00:43:41.386Z,980.85
2023-03-11T00:44:43.067Z,980.78
2023-03-11T00:45:44.856Z,980.83
2023-03-11T00:46:46.519Z,980.82
2023-03-11T00:47:48.315Z,980.85
2023-03-11T00:48:50.001Z,980.88
2023-03-11T00:49:51.739Z,980.86
2023-03-11T00:50:53.488Z,980.88
2023-03-11T00:51:55.399Z,980.88
2023-03-11T00:52:56.960Z,980.87
2023-03-11T00:53:58.677Z,980.91
2023-03-11T00:55:00.411Z,980.91
2023-03-11T00:56:02.160Z,980.87
2023-03-11T00:57:03.868Z,980.92
2023-03-11T00:58:05.714Z,980.93
2023-03-11T00:59:07.342Z,980.95
2023-03-11T01:00:09.108Z,981.05
2023-03-11T01:01:10.894Z,980.98
2023-03-11T01:02:12.552Z,980.99
2023-03-11T01:03:14.277Z,980.92
2023-03-11T01:04:16.113Z,981.04
2023-03-11T01:05:17.742Z,981.01
2023-03-11T01:06:19.479Z,980.99
2023-03-11T01:07:21.228Z,981.1
2023-03-11T01:08:22.976Z,981.17
2023-03-11T01:09:24.668Z,981.15
2023-03-11T01:10:26.471Z,981.16
2023-03-11T01:11:28.125Z,981.14
2023-03-11T01:12:29.924Z,981.11
2023-03-11T01:13:31.602Z,981.07
2023-03-11T01:14:33.361Z,981.09
2023-03-11T01:15:35.204Z,980.98
2023-03-11T01:16:36.821Z,980.9
2023-03-11T01:17:38.547Z,980.87
2023-03-11T01:18:40.282Z,980.98
2023-03-11T01:19:42.001Z,981.01
2023-03-11T01:20:43.977Z,980.92
2023-03-11T01:21:45.477Z,980.99
2023-03-11T01:22:47.257Z,980.94
2023-03-11T01:23:48.953Z,980.86
2023-03-11T01:24:50.701Z,980.93
2023-03-11T01:25:52.411Z,980.96
2023-03-11T01:26:54.151Z,980.96
2023-03-11T01:27:55.879Z,980.99
2023-03-11T01:28:57.637Z,980.94
2023-03-11T01:29:59.359Z,980.98
2023-03-11T01:31:01.103Z,980.99
2023-03-11T01:32:02.804Z,981.07
2023-03-11T01:33:04.569Z,981.03
2023-03-11T01:34:06.318Z,981.01
2023-03-11T01:35:08.019Z,981.04
2023-03-11T01:36:09.822Z,981.03
2023-03-11T01:37:11.497Z,980.94
2023-03-11T01:38:13.482Z,981.1
2023-03-11T01:39:14.977Z,981.08
2023-03-11T01:40:16.745Z,981.04
2023-03-11T01:41:18.444Z,981.05
2023-03-11T01:42:20.192Z,981.05
2023-03-11T01:43:21.916Z,981.09
2023-03-11T01:44:23.612Z,981.08
2023-03-11T01:45:25.339Z,981.13
2023-03-11T01:46:27.221Z,981.11
2023-03-11T01:47:28.861Z,981.17
2023-03-11T01:48:30.556Z,981.18
2023-03-11T01:49:32.273Z,981.23
2023-03-11T01:50:34.132Z,981.25
2023-03-11T01:51:35.766Z,981.32
2023-03-11T01:52:37.531Z,981.3
2023-03-11T01:53:39.214Z,981.38
2023-03-11T01:54:40.947Z,981.28
2023-03-11T01:55:42.703Z,981.38
2023-03-11T01:56:44.542Z,981.33
2023-03-11T01:57:46.154Z,981.35
2023-03-11T01:58:47.925Z,981.41
2023-03-11T01:59:49.643Z,981.37
2023-03-11T02:00:51.370Z,981.41
2023-03-11T02:01:53.124Z,981.35
2023-03-11T02:02:55.054Z,981.39
2023-03-11T02:03:56.571Z,981.38
2023-03-11T02:04:58.296Z,981.38
2023-03-11T02:06:00.051Z,981.37
2023-03-11T02:07:01.770Z,981.34
2023-03-11T02:08:03.535Z,981.38
2023-03-11T02:09:05.225Z,981.39
2023-03-11T02:10:06.962Z,981.43
2023-03-11T02:11:08.730Z,981.41
2023-03-11T02:12:10.426Z,981.39
2023-03-11T02:13:12.169Z,981.34
2023-03-11T02:14:13.909Z,981.33
2023-03-11T02:15:15.869Z,981.32
2023-03-11T02:16:17.458Z,981.35
2023-03-11T02:17:19.146Z,981.35
2023-03-11T02:18:20.848Z,981.35
2023-03-11T02:19:22.599Z,981.31
2023-03-11T02:20:24.315Z,981.35
2023-03-11T02:21:26.039Z,981.36
2023-03-11T02:22:27.774Z,981.25
2023-03-11T02:23:29.506Z,981.36
2023-03-11T02:24:31.292Z,981.35
2023-03-11T02:25:33.013Z,981.37
2023-03-11T02:26:34.759Z,981.34
2023-03-11T02:27:36.477Z,981.33
2023-03-11T02:28:38.174Z,981.35
2023-03-11T02:29:39.938Z,981.3
2023-03-11T02:30:41.644Z,981.31
2023-03-11T02:31:43.510Z,981.29
2023-03-11T02:32:45.246Z,981.29
2023-03-11T02:33:46.892Z,981.27
2023-03-11T02:34:48.618Z,981.27
2023-03-11T02:35:50.401Z,981.26
2023-03-11T02:36:52.046Z,981.24
2023-03-11T02:37:53.791Z,981.26
2023-03-11T02:38:55.541Z,981.24
2023-03-11T02:39:57.285Z,981.21
2023-03-11T02:40:59.006Z,981.2
2023-03-11T02:42:00.715Z,981.12
2023-03-11T02:43:02.459Z,981.19
2023-03-11T02:44:04.191Z,981.18
2023-03-11T02:45:05.942Z,981.11
2023-03-11T02:46:07.658Z,981.2
2023-03-11T02:47:09.374Z,981.22
2023-03-11T02:48:11.338Z,981.25
2023-03-11T02:49:12.856Z,981.28
2023-03-11T02:50:14.579Z,981.23
2023-03-11T02:51:16.360Z,981.35
2023-03-11T02:52:18.065Z,981.32
2023-03-11T02:53:19.822Z,981.35
2023-03-11T02:54:21.519Z,981.35
2023-03-11T02:55:23.266Z,981.36
2023-03-11T02:56:25.030Z,981.42
2023-03-11T02:57:26.738Z,981.38
2023-03-11T02:58:28.461Z,981.4
2023-03-11T02:59:30.240Z,981.45
2023-03-11T03:00:31.986Z,981.43
2023-03-11T03:01:33.662Z,981.45
2023-03-11T03:02:35.418Z,981.44
2023-03-11T03:03:37.129Z,981.45
2023-03-11T03:04:38.865Z,981.43
2023-03-11T03:05:40.596Z,981.49
2023-03-11T03:06:42.342Z,981.46
2023-03-11T03:07:44.051Z,981.59
2023-03-11T03:08:45.847Z,981.55
2023-03-11T03:09:47.552Z,981.54
2023-03-11T03:10:49.283Z,981.56
2023-03-11T03:11:50.985Z,981.6
2023-03-11T03:12:52.720Z,981.63
2023-03-11T03:13:54.494Z,981.71
2023-03-11T03:14:56.238Z,981.72
2023-03-11T03:15:57.935Z,981.66
2023-03-11T03:16:59.835Z,981.78
2023-03-11T03:18:01.422Z,981.78
2023-03-11T03:19:03.142Z,981.74
2023-03-11T03:20:04.965Z,981.74
2023-03-11T03:21:06.596Z,981.84
2023-03-11T03:22:08.353Z,981.84
2023-03-11T03:23:10.066Z,981.78
2023-03-11T03:24:11.808Z,981.85
2023-03-11T03:25:13.618Z,981.87
2023-03-11T03:26:15.273Z,981.92
2023-03-11T03:27:17.018Z,981.91
2023-03-11T03:28:18.738Z,981.97
2023-03-11T03:29:20.482Z,981.91
2023-03-11T03:30:22.213Z,981.94
2023-03-11T03:31:24.150Z,981.92
2023-03-11T03:32:25.702Z,981.99
2023-03-11T03:33:27.430Z,981.97
2023-03-11T03:34:29.182Z,981.99
2023-03-11T03:35:30.964Z,981.98
2023-03-11T03:36:32.658Z,981.99
2023-03-11T03:37:34.341Z,981.96
2023-03-11T03:38:36.082Z,982.01
2023-03-11T03:39:37.853Z,982
2023-03-11T03:40:39.598Z,981.95
2023-03-11T03:41:41.524Z,982.06
2023-03-11T03:42:43.011Z,982.02
2023-03-11T03:43:44.762Z,982.08
2023-03-11T03:44:46.491Z,982.03
2023-03-11T03:45:48.216Z,982.07
2023-03-11T03:46:50.171Z,982
2023-03-11T03:47:51.684Z,982.01
2023-03-11T03:48:53.424Z,982.03
2023-03-11T03:49:55.144Z,982.02
2023-03-11T03:50:56.886Z,982.06
2023-03-11T03:51:58.642Z,982.08
2023-03-11T03:53:00.376Z,982
2023-03-11T03:54:02.088Z,981.96
2023-03-11T03:55:03.814Z,981.95
2023-03-11T03:56:05.575Z,981.99
2023-03-11T03:57:07.278Z,981.99
2023-03-11T03:58:09.023Z,982.03
2023-03-11T03:59:10.784Z,982.02
2023-03-11T04:00:12.479Z,982.06
2023-03-11T04:01:14.251Z,982.08
2023-03-11T04:02:16.108Z,982.06
2023-03-11T04:03:17.756Z,982.09
2023-03-11T04:04:19.411Z,982.07
2023-03-11T04:05:21.159Z,982.06
2023-03-11T04:06:22.879Z,982.03
2023-03-11T04:07:24.664Z,982.15
2023-03-11T04:08:26.391Z,982.14
2023-03-11T04:09:28.078Z,982.14
2023-03-11T04:10:29.995Z,982.19
2023-03-11T04:11:31.578Z,982.17
2023-03-11T04:12:33.296Z,982.2
2023-03-11T04:13:35.012Z,982.21
2023-03-11T04:14:36.761Z,982.23
2023-03-11T04:15:38.492Z,982.24
2023-03-11T04:16:40.314Z,982.23
2023-03-11T04:17:42.140Z,982.26
2023-03-11T04:18:43.696Z,982.25
2023-03-11T04:19:45.428Z,982.25
2023-03-11T04:20:47.208Z,982.26
2023-03-11T04:21:48.938Z,982.21
2023-03-11T04:22:50.775Z,982.27
2023-03-11T04:23:52.417Z,982.31
2023-03-11T04:24:54.203Z,982.28
2023-03-11T04:25:55.847Z,982.28
2023-03-11T04:26:57.575Z,982.27
2023-03-11T04:27:59.293Z,982.29
2023-03-11T04:29:01.077Z,982.26
2023-03-11T04:30:02.815Z,982.28
2023-03-11T04:31:04.551Z,982.21
2023-03-11T04:32:06.268Z,982.23
2023-03-11T04:33:07.980Z,982.17
2023-03-11T04:34:09.737Z,982.18
2023-03-11T04:35:11.464Z,982.21
2023-03-11T04:36:13.188Z,982.19
2023-03-11T04:37:14.952Z,982.16
2023-03-11T04:38:16.632Z,982.17
2023-03-11T04:39:18.414Z,982.17
2023-03-11T04:40:20.155Z,982.14
2023-03-11T04:41:21.868Z,982.21
2023-03-11T04:42:23.629Z,982.17
2023-03-11T04:43:25.314Z,982.24
2023-03-11T04:44:27.033Z,982.24
2023-03-11T04:45:28.783Z,982.25
2023-03-11T04:46:30.562Z,982.24
2023-03-11T04:47:32.324Z,982.29
2023-03-11T04:48:34.011Z,982.28
2023-03-11T04:49:35.719Z,982.29
2023-03-11T04:50:37.431Z,982.2
2023-03-11T04:51:39.184Z,982.3
2023-03-11T04:52:40.891Z,982.28
2023-03-11T04:53:42.678Z,982.32
2023-03-11T04:54:44.408Z,982.36
2023-03-11T04:55:46.193Z,982.36
2023-03-11T04:56:47.829Z,982.36
2023-03-11T04:57:49.584Z,982.41
2023-03-11T04:58:51.361Z,982.38
2023-03-11T04:59:53.043Z,982.42
2023-03-11T05:00:54.888Z,982.42
2023-03-11T05:01:56.534Z,982.47
2023-03-11T05:02:58.287Z,982.48
2023-03-11T05:03:59.975Z,982.46
2023-03-11T05:05:01.765Z,982.49
2023-03-11T05:06:03.438Z,982.45
2023-03-11T05:07:05.176Z,982.52
2023-03-11T05:08:06.910Z,982.5
2023-03-11T05:09:08.642Z,982.57
2023-03-11T05:10:10.421Z,982.54
2023-03-11T05:11:12.135Z,982.5
2023-03-11T05:12:13.845Z,982.55
2023-03-11T05:13:15.623Z,982.56
2023-03-11T05:14:17.307Z,982.54
2023-03-11T05:15:19.084Z,982.55
2023-03-11T05:16:20.870Z,982.58
2023-03-11T05:17:22.562Z,982.57
2023-03-11T05:18:24.238Z,982.58
2023-03-11T05:19:26.106Z,982.6
2023-03-11T05:20:27.710Z,982.63
2023-03-11T05:21:29.502Z,982.57
2023-03-11T05:22:31.214Z,982.59
2023-03-11T05:23:32.926Z,982.59
2023-03-11T05:24:34.753Z,982.58
2023-03-11T05:25:36.648Z,982.69
2023-03-11T05:26:38.126Z,982.66
2023-03-11T05:27:39.892Z,982.68
2023-03-11T05:28:41.596Z,982.68
2023-03-11T05:29:43.324Z,982.68
2023-03-11T05:30:45.080Z,982.73
2023-03-11T05:31:46.821Z,982.74
2023-03-11T05:32:48.605Z,982.74
2023-03-11T05:33:50.301Z,982.78
2023-03-11T05:34:52.024Z,982.76
2023-03-11T05:35:53.808Z,982.72
2023-03-11T05:36:55.475Z,982.77
2023-03-11T05:37:57.214Z,982.8
2023-03-11T05:38:58.925Z,982.79
2023-03-11T05:40:00.697Z,982.77
2023-03-11T05:41:02.433Z,982.78
2023-03-11T05:42:04.131Z,982.8
2023-03-11T05:43:05.869Z,982.8
2023-03-11T05:44:07.597Z,982.75
2023-03-11T05:45:09.324Z,982.76
2023-03-11T05:46:11.121Z,982.79
2023-03-11T05:47:12.825Z,982.82
2023-03-11T05:48:14.544Z,982.81
2023-03-11T05:49:16.309Z,982.81
2023-03-11T05:50:18.024Z,982.84
2023-03-11T05:51:19.779Z,982.84
2023-03-11T05:52:21.477Z,982.83
2023-03-11T05:53:23.215Z,982.82
2023-03-11T05:54:24.964Z,982.77
2023-03-11T05:55:26.716Z,982.8
2023-03-11T05:56:28.421Z,982.79
2023-03-11T05:57:30.173Z,982.8
2023-03-11T05:58:31.934Z,982.81
2023-03-11T05:59:33.641Z,982.8
2023-03-11T06:00:35.343Z,982.83
2023-03-11T06:01:37.080Z,982.81
2023-03-11T06:02:38.820Z,982.87
2023-03-11T06:03:40.628Z,982.83
2023-03-11T06:04:42.475Z,982.84
2023-03-11T06:05:44.024Z,982.84
2023-03-11T06:06:45.757Z,982.86
2023-03-11T06:07:47.513Z,982.92
2023-03-11T06:08:49.215Z,982.87
2023-03-11T06:09:50.954Z,982.91
2023-03-11T06:10:52.775Z,982.92
2023-03-11T06:11:54.410Z,982.91
2023-03-11T06:13:57.888Z,982.94
2023-03-11T06:14:58.492Z,982.91
2023-03-11T06:14:59.629Z,982.92
2023-03-11T06:16:01.448Z,982.95
2023-03-11T06:17:03.092Z,982.95
2023-03-11T06:18:04.837Z,983
2023-03-11T06:19:06.541Z,983.01
2023-03-11T06:20:08.318Z,983.06
2023-03-11T06:21:10.032Z,983.04
2023-03-11T06:22:11.751Z,983.02
2023-03-11T06:23:13.709Z,983.05
2023-03-11T06:24:15.263Z,983.1
2023-03-11T06:25:16.985Z,983.08
2023-03-11T06:26:18.920Z,983.06
2023-03-11T06:27:20.435Z,983.14
2023-03-11T06:28:22.187Z,983.16
2023-03-11T06:29:23.908Z,983.2
2023-03-11T06:30:25.649Z,983.2
2023-03-11T06:31:27.427Z,983.26
2023-03-11T06:32:29.156Z,983.28
2023-03-11T06:33:30.809Z,983.31
2023-03-11T06:34:32.547Z,983.28
2023-03-11T06:35:34.326Z,983.3
2023-03-11T06:36:36.056Z,983.35
2023-03-11T06:37:37.780Z,983.4
2023-03-11T06:38:39.491Z,983.38
2023-03-11T06:39:41.224Z,983.44
2023-03-11T06:40:42.942Z,983.41
2023-03-11T06:41:44.722Z,983.4
2023-03-11T06:42:46.482Z,983.45
2023-03-11T06:43:48.392Z,983.44
2023-03-11T06:44:49.925Z,983.37
2023-03-11T06:45:51.638Z,983.46
2023-03-11T06:46:53.407Z,983.44
2023-03-11T06:47:55.100Z,983.44
2023-03-11T06:48:56.836Z,983.45
2023-03-11T06:49:58.603Z,983.5
2023-03-11T06:51:00.307Z,983.39
2023-03-11T06:52:02.042Z,983.43
2023-03-11T06:53:03.851Z,983.46
2023-03-11T06:54:05.532Z,983.49
2023-03-11T06:55:07.253Z,983.5
2023-03-11T06:56:08.992Z,983.46
2023-03-11T06:57:10.735Z,983.47
2023-03-11T06:58:12.476Z,983.5
2023-03-11T06:59:14.161Z,983.55
2023-03-11T07:00:15.912Z,983.52
2023-03-11T07:01:17.737Z,983.55
2023-03-11T07:02:19.384Z,983.63
2023-03-11T07:03:21.147Z,983.66
2023-03-11T07:04:22.997Z,983.64
2023-03-11T07:05:24.637Z,983.71
2023-03-11T07:06:26.316Z,983.76
2023-03-11T07:07:28.055Z,983.79
2023-03-11T07:08:29.810Z,983.79
2023-03-11T07:09:31.558Z,983.75
2023-03-11T07:10:33.257Z,983.77
2023-03-11T07:11:34.974Z,983.77
2023-03-11T07:12:36.713Z,983.79
2023-03-11T07:13:38.448Z,983.83
2023-03-11T07:14:40.184Z,983.89
2023-03-11T07:15:41.912Z,983.82
2023-03-11T07:16:43.738Z,983.85
2023-03-11T07:17:45.386Z,983.81
2023-03-11T07:18:47.150Z,983.84
2023-03-11T07:19:48.863Z,983.89
2023-03-11T07:20:50.583Z,983.95
2023-03-11T07:21:52.367Z,983.92
2023-03-11T07:22:54.055Z,983.96
2023-03-11T07:23:55.816Z,983.93
2023-03-11T07:24:57.525Z,983.94
2023-03-11T07:25:59.272Z,983.96
2023-03-11T07:27:00.991Z,983.95
2023-03-11T07:28:02.738Z,983.93
2023-03-11T07:29:04.457Z,984
2023-03-11T07:30:06.246Z,983.96
2023-03-11T07:31:07.924Z,983.99
2023-03-11T07:32:09.725Z,983.99
2023-03-11T07:33:11.400Z,984.01
2023-03-11T07:34:13.136Z,983.99
2023-03-11T07:35:15.212Z,983.97
2023-03-11T07:36:16.592Z,983.99
2023-03-11T07:37:18.334Z,984.01
2023-03-11T07:38:20.065Z,984.03
2023-03-11T07:39:21.826Z,984.04
2023-03-11T07:40:23.563Z,984.08
2023-03-11T07:41:25.257Z,984.09
2023-03-11T07:42:26.982Z,984.1
2023-03-11T07:43:28.743Z,984.18
2023-03-11T07:44:30.449Z,984.23
2023-03-11T07:45:32.189Z,984.22
2023-03-11T07:46:33.934Z,984.26
2023-03-11T07:47:35.649Z,984.28
2023-03-11T07:48:37.394Z,984.35
2023-03-11T07:49:39.171Z,984.37
2023-03-11T07:50:40.885Z,984.4
2023-03-11T07:51:42.606Z,984.38
2023-03-11T07:52:44.409Z,984.4
2023-03-11T07:53:46.058Z,984.39
2023-03-11T07:54:47.830Z,984.45
2023-03-11T07:55:49.531Z,984.4
2023-03-11T07:56:51.462Z,984.5
2023-03-11T07:57:53.019Z,984.41
2023-03-11T07:58:54.730Z,984.49
2023-03-11T07:59:56.468Z,984.52
2023-03-11T08:00:58.235Z,984.53
2023-03-11T08:01:59.991Z,984.57
2023-03-11T08:03:01.674Z,984.53
2023-03-11T08:04:03.400Z,984.6
2023-03-11T08:05:05.172Z,984.6
2023-03-11T08:06:06.871Z,984.63
2023-03-11T08:07:08.564Z,984.63
2023-03-11T08:08:10.360Z,984.62
2023-03-11T08:09:12.030Z,984.59
2023-03-11T08:10:13.766Z,984.64
2023-03-11T08:11:15.502Z,984.65
2023-03-11T08:12:17.268Z,984.63
2023-03-11T08:13:19.020Z,984.66
2023-03-11T08:14:20.743Z,984.7
2023-03-11T08:15:22.457Z,984.65
2023-03-11T08:16:24.180Z,984.72
2023-03-11T08:17:25.892Z,984.77
2023-03-11T08:18:27.666Z,984.75
2023-03-11T08:19:29.388Z,984.76
2023-03-11T08:20:31.099Z,984.77
2023-03-11T08:21:32.872Z,984.83
2023-03-11T08:22:34.592Z,984.77
2023-03-11T08:23:36.293Z,984.83
2023-03-11T08:24:38.039Z,984.87
2023-03-11T08:25:39.793Z,984.84
2023-03-11T08:26:41.528Z,984.9
2023-03-11T08:27:43.221Z,984.85
2023-03-11T08:28:44.953Z,984.86
2023-03-11T08:29:46.705Z,984.87
2023-03-11T08:30:48.498Z,984.94
2023-03-11T08:31:50.164Z,984.93
2023-03-11T08:32:51.950Z,984.91
2023-03-11T08:33:53.835Z,984.97
2023-03-11T08:34:55.384Z,984.92
2023-03-11T08:35:57.359Z,984.93
2023-03-11T08:36:58.873Z,984.93
2023-03-11T08:38:00.613Z,984.92
2023-03-11T08:39:02.378Z,984.89
2023-03-11T08:40:04.064Z,984.92
2023-03-11T08:41:05.805Z,984.96
2023-03-11T08:42:07.501Z,984.95
2023-03-11T08:43:09.250Z,984.99
2023-03-11T08:44:10.987Z,984.93
2023-03-11T08:45:12.742Z,984.94
2023-03-11T08:46:14.516Z,984.92
2023-03-11T08:47:16.174Z,984.96
2023-03-11T08:48:17.948Z,984.99
2023-03-11T08:49:19.643Z,985
2023-03-11T08:50:21.411Z,984.95
2023-03-11T08:51:23.148Z,984.96
2023-03-11T08:52:24.841Z,984.98
2023-03-11T08:53:26.618Z,984.95
2023-03-11T08:54:28.315Z,984.97
2023-03-11T08:55:30.128Z,984.94
2023-03-11T08:56:31.806Z,984.98
2023-03-11T08:57:33.527Z,985.04
2023-03-11T08:58:35.270Z,985.03
2023-03-11T08:59:36.976Z,984.97
2023-03-11T09:00:38.836Z,984.99
2023-03-11T09:01:40.468Z,984.95
2023-03-11T09:02:42.245Z,984.98
2023-03-11T09:03:43.967Z,984.96
2023-03-11T09:04:45.673Z,985.02
2023-03-11T09:05:47.425Z,985.02
2023-03-11T09:06:53.369Z,984.91
2023-03-11T09:07:56.014Z,985.02
2023-03-11T09:08:57.746Z,984.98
2023-03-11T09:09:59.457Z,985.01
2023-03-11T09:11:01.204Z,985
2023-03-11T09:12:02.947Z,984.97
2023-03-11T09:13:04.671Z,984.98
2023-03-11T09:14:06.425Z,984.93
2023-03-11T09:15:08.166Z,984.96
2023-03-11T09:16:10.037Z,984.98
2023-03-11T09:17:11.597Z,984.97
2023-03-11T09:18:13.342Z,984.94
2023-03-11T09:19:15.073Z,984.95
2023-03-11T09:20:16.805Z,984.98
2023-03-11T09:21:18.572Z,984.98
2023-03-11T09:22:20.252Z,984.95
2023-03-11T09:23:22.000Z,984.92
2023-03-11T09:24:23.720Z,984.87
2023-03-11T09:25:25.476Z,984.9
2023-03-11T09:26:27.211Z,984.94
2023-03-11T09:27:28.946Z,984.9
2023-03-11T09:28:30.691Z,984.91
2023-03-11T09:29:32.449Z,984.96
2023-03-11T09:30:34.174Z,984.98
2023-03-11T09:31:35.967Z,984.96
2023-03-11T09:32:37.700Z,984.88
2023-03-11T09:33:39.397Z,984.99
2023-03-11T09:34:41.088Z,984.94
2023-03-11T09:35:42.840Z,984.89
2023-03-11T09:36:44.585Z,984.96
2023-03-11T09:37:46.290Z,984.92
2023-03-11T09:38:48.020Z,984.85
2023-03-11T09:39:49.759Z,984.93
2023-03-11T09:40:51.509Z,984.93
2023-03-11T09:41:58.537Z,984.92
2023-03-11T09:42:54.960Z,984.94
2023-03-11T09:43:56.700Z,984.91
2023-03-11T09:44:58.489Z,984.97
2023-03-11T09:46:00.164Z,984.96
2023-03-11T09:47:02.245Z,984.97
2023-03-11T09:48:03.661Z,984.93
2023-03-11T09:49:05.378Z,984.98
2023-03-11T09:50:07.079Z,984.96
2023-03-11T09:51:08.859Z,984.95
2023-03-11T09:52:10.592Z,984.96
2023-03-11T09:53:12.290Z,984.97
2023-03-11T09:54:14.046Z,984.99
2023-03-11T09:55:15.788Z,984.91
2023-03-11T09:56:17.569Z,984.92
2023-03-11T09:57:19.214Z,984.92
2023-03-11T09:58:20.973Z,984.98
2023-03-11T09:59:22.743Z,984.98
2023-03-11T10:00:24.454Z,985.09
2023-03-11T10:01:26.223Z,985.05
2023-03-11T10:02:28.238Z,985.06
2023-03-11T10:03:29.677Z,985.14
2023-03-11T10:04:31.392Z,985.13
2023-03-11T10:05:33.186Z,985.16
2023-03-11T10:06:34.844Z,985.16
2023-03-11T10:07:36.552Z,985.16
2023-03-11T10:08:38.310Z,985.19
2023-03-11T10:09:40.025Z,985.17
2023-03-11T10:10:41.767Z,985.17
2023-03-11T10:11:43.479Z,985.19
2023-03-11T10:12:45.276Z,985.17
2023-03-11T10:13:46.998Z,985.19
2023-03-11T10:14:48.701Z,985.26
2023-03-11T10:15:50.508Z,985.24
2023-03-11T10:16:52.200Z,985.32
2023-03-11T10:17:53.904Z,985.33
2023-03-11T10:18:55.659Z,985.34
2023-03-11T10:19:57.364Z,985.33
2023-03-11T10:20:59.116Z,985.36
2023-03-11T10:22:00.817Z,985.37
2023-03-11T10:23:02.561Z,985.38
2023-03-11T10:24:04.333Z,985.37
2023-03-11T10:25:06.026Z,985.33
2023-03-11T10:26:07.780Z,985.43
2023-03-11T10:27:09.516Z,985.42
2023-03-11T10:28:11.221Z,985.39
2023-03-11T10:29:12.989Z,985.36
2023-03-11T10:30:14.707Z,985.39
2023-03-11T10:31:16.347Z,985.42
2023-03-11T10:32:18.092Z,985.39
2023-03-11T10:33:19.753Z,985.41
2023-03-11T10:34:21.505Z,985.36
2023-03-11T10:35:23.258Z,985.42
2023-03-11T10:36:24.947Z,985.43
2023-03-11T10:37:33.234Z,985.46
2023-03-11T10:38:28.474Z,985.43
2023-03-11T10:39:30.142Z,985.42
2023-03-11T10:40:31.962Z,985.38
2023-03-11T10:41:33.680Z,985.44
2023-03-11T10:42:35.404Z,985.46
2023-03-11T10:43:37.156Z,985.42
2023-03-11T10:44:38.859Z,985.49
2023-03-11T10:45:40.682Z,985.48
2023-03-11T10:46:42.354Z,985.48
2023-03-11T10:47:44.085Z,985.47
2023-03-11T10:48:45.791Z,985.49
2023-03-11T10:49:47.582Z,985.45
2023-03-11T10:50:49.297Z,985.48
2023-03-11T10:51:51.027Z,985.46
2023-03-11T10:52:52.725Z,985.45
2023-03-11T10:53:54.485Z,985.43
2023-03-11T10:54:56.227Z,985.44
2023-03-11T10:55:57.957Z,985.41
2023-03-11T10:56:59.695Z,985.42
2023-03-11T10:58:01.401Z,985.49
2023-03-11T10:59:03.124Z,985.48
2023-03-11T11:00:04.873Z,985.51
2023-03-11T11:01:06.657Z,985.5
2023-03-11T11:02:08.341Z,985.5
2023-03-11T11:03:10.053Z,985.56
2023-03-11T11:04:11.839Z,985.59
2023-03-11T11:05:13.547Z,985.58
2023-03-11T11:06:15.290Z,985.61
2023-03-11T11:07:17.010Z,985.62
2023-03-11T11:08:18.764Z,985.64
2023-03-11T11:09:20.511Z,985.63
2023-03-11T11:10:22.203Z,985.68
2023-03-11T11:11:23.935Z,985.72
2023-03-11T11:12:25.677Z,985.75
2023-03-11T11:13:27.397Z,985.69
2023-03-11T11:14:29.268Z,985.67
2023-03-11T11:15:30.870Z,985.64
2023-03-11T11:16:32.695Z,985.72
2023-03-11T11:17:34.340Z,985.68
2023-03-11T11:18:36.078Z,985.7
2023-03-11T11:19:37.795Z,985.64
2023-03-11T11:20:39.738Z,985.66
2023-03-11T11:21:41.308Z,985.66
2023-03-11T11:22:43.032Z,985.75
2023-03-11T11:23:44.735Z,985.7
2023-03-11T11:24:46.507Z,985.71
2023-03-11T11:25:48.240Z,985.75
2023-03-11T11:26:49.966Z,985.77
2023-03-11T11:27:51.666Z,985.74
2023-03-11T11:28:53.437Z,985.73
2023-03-11T11:29:55.155Z,985.76
2023-03-11T11:30:56.905Z,985.73
2023-03-11T11:31:58.603Z,985.7
2023-03-11T11:33:00.368Z,985.76
2023-03-11T11:34:02.071Z,985.7
2023-03-11T11:35:03.797Z,985.63
2023-03-11T11:36:05.536Z,985.66
2023-03-11T11:37:07.302Z,985.7
2023-03-11T11:38:08.994Z,985.62
2023-03-11T11:39:10.728Z,985.6
2023-03-11T11:40:12.504Z,985.61
2023-03-11T11:41:14.208Z,985.65
2023-03-11T11:42:15.934Z,985.65
2023-03-11T11:43:17.726Z,985.67
2023-03-11T11:44:19.398Z,985.68
2023-03-11T11:45:21.184Z,985.62
2023-03-11T11:46:22.962Z,985.67
2023-03-11T11:47:24.596Z,985.67
2023-03-11T11:48:26.337Z,985.65
2023-03-11T11:49:28.069Z,985.56
2023-03-11T11:50:29.844Z,985.58
2023-03-11T11:51:31.587Z,985.6
2023-03-11T11:52:33.294Z,985.6
2023-03-11T11:53:35.024Z,985.62
2023-03-11T11:54:36.742Z,985.67
2023-03-11T11:55:38.524Z,985.7
2023-03-11T11:56:40.242Z,985.66
2023-03-11T11:57:41.943Z,985.58
2023-03-11T11:58:43.693Z,985.59
2023-03-11T11:59:45.451Z,985.55
2023-03-11T12:00:47.179Z,985.59
2023-03-11T12:01:48.899Z,985.52
2023-03-11T12:02:50.662Z,985.54
2023-03-11T12:03:52.479Z,985.54
2023-03-11T12:04:54.084Z,985.56
2023-03-11T12:05:57.992Z,985.53
2023-03-11T12:06:57.553Z,985.56
2023-03-11T12:07:59.302Z,985.56
2023-03-11T12:09:01.028Z,985.49
2023-03-11T12:10:12.849Z,985.5
2023-03-11T12:11:04.478Z,985.54
2023-03-11T12:12:06.229Z,985.53
2023-03-11T12:13:07.977Z,985.54
2023-03-11T12:14:09.703Z,985.49
2023-03-11T12:15:11.450Z,985.48
2023-03-11T12:16:13.247Z,985.46
2023-03-11T12:17:14.894Z,985.44
2023-03-11T12:18:16.654Z,985.45
2023-03-11T12:19:18.378Z,985.42
2023-03-11T12:20:20.118Z,985.42
2023-03-11T12:21:21.856Z,985.36
2023-03-11T12:22:23.578Z,985.36
2023-03-11T12:23:25.288Z,985.35
2023-03-11T12:24:27.017Z,985.36
2023-03-11T12:25:28.783Z,985.32
2023-03-11T12:26:30.522Z,985.31
2023-03-11T12:27:32.255Z,985.33
2023-03-11T12:28:33.958Z,985.33
2023-03-11T12:29:35.684Z,985.34
2023-03-11T12:30:37.409Z,985.4
2023-03-11T12:31:39.218Z,985.39
2023-03-11T12:32:40.927Z,985.43
2023-03-11T12:33:42.610Z,985.44
2023-03-11T12:34:44.361Z,985.42
2023-03-11T12:35:46.122Z,985.41
2023-03-11T12:36:47.821Z,985.41
2023-03-11T12:37:49.581Z,985.36
2023-03-11T12:38:51.283Z,985.47
2023-03-11T12:39:53.037Z,985.39
2023-03-11T12:40:54.749Z,985.52
2023-03-11T12:41:56.534Z,985.48
2023-03-11T12:42:58.222Z,985.51
2023-03-11T12:43:59.987Z,985.51
2023-03-11T12:45:01.679Z,985.51
2023-03-11T12:46:03.411Z,985.46
2023-03-11T12:47:05.146Z,985.54
2023-03-11T12:48:06.936Z,985.63
2023-03-11T12:49:08.614Z,985.6
2023-03-11T12:50:10.363Z,985.62
2023-03-11T12:51:12.126Z,985.57
2023-03-11T12:52:13.871Z,985.55